Waremme, Belgium
Current Conditions -  °F | °C
As of 7:20 AM on Friday 31 Oct 2014 (Local Time) from EBLG Reporting Station
Clear Clear  
Wind Chill: 57°   Ceiling: Unl
Heat Index: 57°   Visibility: 6mi
Dew Point: 50°   Wind: 12mph
Humidity: 77%   Direction: 160°SSE
Pressure: 30.18"   Gusts: NA
Location:  50.7°N, 5.26°E
Report Text: EBLG 310620Z 16010KT CAVOK 14/10 Q1022 NOSIG
Loading
Personal Weather Stations






























Interactive Weather Map
Tropical Storm Tracking
New forecast layout! Learn more

10-Day Weather Forecast

Advertisements
Track Severe Weather on mobile